sensor_id;sensor_type;location;lat;lon;timestamp;P1;durP1;ratioP1;P2;durP2;ratioP2
6374;SDS011;35400;45.472;-122.822;2023-01-29T00:02:07;2.37;;;0.70;;
6374;SDS011;35400;45.472;-122.822;2023-01-29T00:04:33;1.00;;;0.50;;
6374;SDS011;35400;45.472;-122.822;2023-01-29T00:07:01;0.80;;;0.80;;
6374;SDS011;35400;45.472;-122.822;2023-01-29T00:09:27;0.73;;;0.73;;
6374;SDS011;35400;45.472;-122.822;2023-01-29T00:11:56;0.50;;;0.50;;
6374;SDS011;35400;45.472;-122.822;2023-01-29T00:14:22;1.07;;;0.60;;
6374;SDS011;35400;45.472;-122.822;2023-01-29T00:16:50;0.77;;;0.77;;
6374;SDS011;35400;45.472;-122.822;2023-01-29T00:19:17;0.53;;;0.53;;
6374;SDS011;35400;45.472;-122.822;2023-01-29T00:21:44;1.40;;;0.47;;
6374;SDS011;35400;45.472;-122.822;2023-01-29T00:24:11;1.90;;;0.77;;
6374;SDS011;35400;45.472;-122.822;2023-01-29T00:26:38;0.90;;;0.90;;
6374;SDS011;35400;45.472;-122.822;2023-01-29T00:29:07;1.00;;;0.90;;
6374;SDS011;35400;45.472;-122.822;2023-01-29T00:31:34;1.30;;;1.20;;
6374;SDS011;35400;45.472;-122.822;2023-01-29T00:34:00;1.50;;;1.40;;
6374;SDS011;35400;45.472;-122.822;2023-01-29T00:36:28;2.00;;;1.70;;
6374;SDS011;35400;45.472;-122.822;2023-01-29T00:38:55;1.57;;;1.47;;
6374;SDS011;35400;45.472;-122.822;2023-01-29T00:41:30;2.07;;;1.40;;
6374;SDS011;35400;45.472;-122.822;2023-01-29T00:44:16;1.87;;;1.60;;
6374;SDS011;35400;45.472;-122.822;2023-01-29T00:47:02;3.27;;;1.70;;
6374;SDS011;35400;45.472;-122.822;2023-01-29T00:49:49;2.03;;;1.50;;
6374;SDS011;35400;45.472;-122.822;2023-01-29T00:52:16;1.30;;;1.20;;
6374;SDS011;35400;45.472;-122.822;2023-01-29T00:54:49;2.33;;;1.10;;
6374;SDS011;35400;45.472;-122.822;2023-01-29T00:57:20;0.70;;;0.70;;
6374;SDS011;35400;45.472;-122.822;2023-01-29T00:59:48;0.90;;;0.60;;
6374;SDS011;35400;45.472;-122.822;2023-01-29T01:02:16;0.87;;;0.60;;
6374;SDS011;35400;45.472;-122.822;2023-01-29T01:05:03;0.67;;;0.63;;
6374;SDS011;35400;45.472;-122.822;2023-01-29T01:07:32;1.07;;;0.83;;
6374;SDS011;35400;45.472;-122.822;2023-01-29T01:09:59;1.10;;;1.00;;
6374;SDS011;35400;45.472;-122.822;2023-01-29T01:12:44;0.63;;;0.63;;
6374;SDS011;35400;45.472;-122.822;2023-01-29T01:15:11;2.53;;;0.80;;
6374;SDS011;35400;45.472;-122.822;2023-01-29T01:17:39;1.50;;;1.03;;
6374;SDS011;35400;45.472;-122.822;2023-01-29T01:20:07;0.57;;;0.40;;
6374;SDS011;35400;45.472;-122.822;2023-01-29T01:22:35;0.30;;;0.30;;
6374;SDS011;35400;45.472;-122.822;2023-01-29T01:25:02;0.53;;;0.47;;
6374;SDS011;35400;45.472;-122.822;2023-01-29T01:27:29;0.40;;;0.40;;
6374;SDS011;35400;45.472;-122.822;2023-01-29T01:29:56;0.57;;;0.57;;
6374;SDS011;35400;45.472;-122.822;2023-01-29T01:32:24;0.60;;;0.50;;
6374;SDS011;35400;45.472;-122.822;2023-01-29T01:34:51;0.43;;;0.43;;
6374;SDS011;35400;45.472;-122.822;2023-01-29T01:37:18;0.87;;;0.40;;
6374;SDS011;35400;45.472;-122.822;2023-01-29T01:39:45;0.37;;;0.37;;
6374;SDS011;35400;45.472;-122.822;2023-01-29T01:42:13;0.90;;;0.77;;
6374;SDS011;35400;45.472;-122.822;2023-01-29T01:44:53;0.70;;;0.50;;
6374;SDS011;35400;45.472;-122.822;2023-01-29T01:47:23;0.60;;;0.60;;
6374;SDS011;35400;45.472;-122.822;2023-01-29T01:50:00;0.33;;;0.30;;
6374;SDS011;35400;45.472;-122.822;2023-01-29T01:52:33;0.93;;;0.80;;
6374;SDS011;35400;45.472;-122.822;2023-01-29T01:55:05;0.80;;;0.50;;
6374;SDS011;35400;45.472;-122.822;2023-01-29T01:57:34;0.47;;;0.47;;
6374;SDS011;35400;45.472;-122.822;2023-01-29T02:00:06;0.70;;;0.53;;
6374;SDS011;35400;45.472;-122.822;2023-01-29T02:02:41;1.13;;;0.90;;
6374;SDS011;35400;45.472;-122.822;2023-01-29T02:05:32;0.47;;;0.47;;
6374;SDS011;35400;45.472;-122.822;2023-01-29T02:08:19;1.17;;;0.57;;
6374;SDS011;35400;45.472;-122.822;2023-01-29T02:11:13;0.80;;;0.80;;
6374;SDS011;35400;45.472;-122.822;2023-01-29T02:13:40;0.50;;;0.50;;
6374;SDS011;35400;45.472;-122.822;2023-01-29T02:16:10;0.87;;;0.87;;
6374;SDS011;35400;45.472;-122.822;2023-01-29T02:18:37;0.53;;;0.53;;
6374;SDS011;35400;45.472;-122.822;2023-01-29T02:21:14;0.63;;;0.63;;
6374;SDS011;35400;45.472;-122.822;2023-01-29T02:24:29;0.87;;;0.60;;
6374;SDS011;35400;45.472;-122.822;2023-01-29T02:27:12;0.40;;;0.40;;
6374;SDS011;35400;45.472;-122.822;2023-01-29T02:29:57;0.50;;;0.50;;
6374;SDS011;35400;45.472;-122.822;2023-01-29T02:32:50;0.60;;;0.53;;
6374;SDS011;35400;45.472;-122.822;2023-01-29T02:35:33;1.03;;;0.70;;
6374;SDS011;35400;45.472;-122.822;2023-01-29T02:38:20;0.70;;;0.70;;
6374;SDS011;35400;45.472;-122.822;2023-01-29T02:41:07;0.50;;;0.50;;
6374;SDS011;35400;45.472;-122.822;2023-01-29T02:44:16;0.30;;;0.30;;
6374;SDS011;35400;45.472;-122.822;2023-01-29T02:52:25;0.50;;;0.50;;
6374;SDS011;35400;45.472;-122.822;2023-01-29T02:54:59;1.50;;;0.50;;
6374;SDS011;35400;45.472;-122.822;2023-01-29T02:57:36;0.43;;;0.43;;
6374;SDS011;35400;45.472;-122.822;2023-01-29T03:00:14;0.50;;;0.50;;
6374;SDS011;35400;45.472;-122.822;2023-01-29T03:02:57;0.47;;;0.47;;
6374;SDS011;35400;45.472;-122.822;2023-01-29T03:08:52;0.50;;;0.50;;
6374;SDS011;35400;45.472;-122.822;2023-01-29T03:11:24;0.63;;;0.50;;
6374;SDS011;35400;45.472;-122.822;2023-01-29T03:14:02;0.40;;;0.40;;
6374;SDS011;35400;45.472;-122.822;2023-01-29T03:16:51;0.90;;;0.50;;
6374;SDS011;35400;45.472;-122.822;2023-01-29T03:19:33;0.43;;;0.43;;
6374;SDS011;35400;45.472;-122.822;2023-01-29T03:22:17;1.50;;;0.53;;
6374;SDS011;35400;45.472;-122.822;2023-01-29T03:24:51;0.50;;;0.50;;
6374;SDS011;35400;45.472;-122.822;2023-01-29T03:27:45;1.03;;;0.40;;
6374;SDS011;35400;45.472;-122.822;2023-01-29T03:30:54;1.07;;;0.30;;
6374;SDS011;35400;45.472;-122.822;2023-01-29T03:33:48;0.90;;;0.40;;
6374;SDS011;35400;45.472;-122.822;2023-01-29T03:36:26;0.40;;;0.40;;
6374;SDS011;35400;45.472;-122.822;2023-01-29T03:39:05;0.40;;;0.40;;
6374;SDS011;35400;45.472;-122.822;2023-01-29T03:41:35;0.50;;;0.50;;
6374;SDS011;35400;45.472;-122.822;2023-01-29T03:46:51;1.27;;;0.70;;
6374;SDS011;35400;45.472;-122.822;2023-01-29T03:52:20;0.60;;;0.60;;
6374;SDS011;35400;45.472;-122.822;2023-01-29T03:57:52;0.53;;;0.50;;
6374;SDS011;35400;45.472;-122.822;2023-01-29T04:00:33;1.50;;;0.80;;
6374;SDS011;35400;45.472;-122.822;2023-01-29T04:06:16;0.70;;;0.63;;
6374;SDS011;35400;45.472;-122.822;2023-01-29T04:09:15;0.60;;;0.60;;
6374;SDS011;35400;45.472;-122.822;2023-01-29T04:11:51;0.60;;;0.60;;
6374;SDS011;35400;45.472;-122.822;2023-01-29T04:14:32;1.10;;;0.60;;
6374;SDS011;35400;45.472;-122.822;2023-01-29T04:17:00;0.50;;;0.50;;
6374;SDS011;35400;45.472;-122.822;2023-01-29T04:19:56;0.80;;;0.67;;
6374;SDS011;35400;45.472;-122.822;2023-01-29T04:22:36;1.27;;;0.73;;
6374;SDS011;35400;45.472;-122.822;2023-01-29T04:25:06;0.50;;;0.50;;
6374;SDS011;35400;45.472;-122.822;2023-01-29T04:27:50;1.27;;;0.50;;
6374;SDS011;35400;45.472;-122.822;2023-01-29T04:38:30;0.60;;;0.60;;
6374;SDS011;35400;45.472;-122.822;2023-01-29T04:44:15;1.00;;;0.97;;
6374;SDS011;35400;45.472;-122.822;2023-01-29T04:47:20;0.70;;;0.70;;
6374;SDS011;35400;45.472;-122.822;2023-01-29T04:52:57;0.70;;;0.70;;
6374;SDS011;35400;45.472;-122.822;2023-01-29T04:55:39;0.80;;;0.80;;
6374;SDS011;35400;45.472;-122.822;2023-01-29T05:00:55;0.80;;;0.80;;
6374;SDS011;35400;45.472;-122.822;2023-01-29T05:03:25;0.83;;;0.83;;
6374;SDS011;35400;45.472;-122.822;2023-01-29T05:05:54;2.53;;;0.93;;
6374;SDS011;35400;45.472;-122.822;2023-01-29T05:08:23;0.80;;;0.80;;
6374;SDS011;35400;45.472;-122.822;2023-01-29T05:10:52;2.57;;;1.23;;
6374;SDS011;35400;45.472;-122.822;2023-01-29T05:13:22;0.80;;;0.80;;
6374;SDS011;35400;45.472;-122.822;2023-01-29T05:18:30;0.80;;;0.80;;
6374;SDS011;35400;45.472;-122.822;2023-01-29T05:20:59;0.97;;;0.97;;
6374;SDS011;35400;45.472;-122.822;2023-01-29T05:23:29;1.20;;;1.10;;
6374;SDS011;35400;45.472;-122.822;2023-01-29T05:25:55;0.80;;;0.80;;
6374;SDS011;35400;45.472;-122.822;2023-01-29T05:28:25;1.00;;;0.90;;
6374;SDS011;35400;45.472;-122.822;2023-01-29T05:30:53;0.70;;;0.70;;
6374;SDS011;35400;45.472;-122.822;2023-01-29T05:33:25;0.97;;;0.77;;
6374;SDS011;35400;45.472;-122.822;2023-01-29T05:35:53;1.13;;;0.80;;
6374;SDS011;35400;45.472;-122.822;2023-01-29T05:38:21;4.53;;;0.87;;
6374;SDS011;35400;45.472;-122.822;2023-01-29T05:40:48;1.10;;;1.00;;
6374;SDS011;35400;45.472;-122.822;2023-01-29T05:43:20;0.97;;;0.93;;
6374;SDS011;35400;45.472;-122.822;2023-01-29T05:45:52;1.03;;;0.93;;
6374;SDS011;35400;45.472;-122.822;2023-01-29T05:48:20;1.83;;;0.77;;
6374;SDS011;35400;45.472;-122.822;2023-01-29T05:50:47;1.10;;;1.10;;
6374;SDS011;35400;45.472;-122.822;2023-01-29T05:53:14;1.63;;;0.80;;
6374;SDS011;35400;45.472;-122.822;2023-01-29T05:55:45;1.20;;;0.70;;
6374;SDS011;35400;45.472;-122.822;2023-01-29T05:58:12;0.70;;;0.70;;
6374;SDS011;35400;45.472;-122.822;2023-01-29T06:00:40;1.80;;;1.07;;
6374;SDS011;35400;45.472;-122.822;2023-01-29T06:03:07;1.03;;;0.93;;
6374;SDS011;35400;45.472;-122.822;2023-01-29T06:05:36;0.97;;;0.70;;
6374;SDS011;35400;45.472;-122.822;2023-01-29T06:08:04;0.73;;;0.73;;
6374;SDS011;35400;45.472;-122.822;2023-01-29T06:10:31;0.50;;;0.50;;
6374;SDS011;35400;45.472;-122.822;2023-01-29T06:12:58;1.33;;;0.80;;
6374;SDS011;35400;45.472;-122.822;2023-01-29T06:15:25;1.00;;;1.00;;
6374;SDS011;35400;45.472;-122.822;2023-01-29T06:17:52;1.40;;;0.87;;
6374;SDS011;35400;45.472;-122.822;2023-01-29T06:20:20;0.70;;;0.70;;
6374;SDS011;35400;45.472;-122.822;2023-01-29T06:22:47;0.93;;;0.80;;
6374;SDS011;35400;45.472;-122.822;2023-01-29T06:25:17;1.73;;;0.90;;
6374;SDS011;35400;45.472;-122.822;2023-01-29T06:27:49;1.17;;;0.93;;
6374;SDS011;35400;45.472;-122.822;2023-01-29T06:30:16;2.00;;;0.80;;
6374;SDS011;35400;45.472;-122.822;2023-01-29T06:32:43;1.80;;;0.97;;
6374;SDS011;35400;45.472;-122.822;2023-01-29T06:35:10;0.77;;;0.77;;
6374;SDS011;35400;45.472;-122.822;2023-01-29T06:37:37;0.50;;;0.50;;
6374;SDS011;35400;45.472;-122.822;2023-01-29T06:40:04;0.80;;;0.80;;
6374;SDS011;35400;45.472;-122.822;2023-01-29T06:42:33;1.60;;;0.90;;
6374;SDS011;35400;45.472;-122.822;2023-01-29T06:45:00;1.30;;;0.90;;
6374;SDS011;35400;45.472;-122.822;2023-01-29T06:47:27;0.97;;;0.80;;
6374;SDS011;35400;45.472;-122.822;2023-01-29T06:49:54;0.70;;;0.70;;
6374;SDS011;35400;45.472;-122.822;2023-01-29T06:52:20;1.53;;;0.93;;
6374;SDS011;35400;45.472;-122.822;2023-01-29T06:54:47;1.40;;;0.70;;
6374;SDS011;35400;45.472;-122.822;2023-01-29T06:57:14;1.00;;;0.90;;
6374;SDS011;35400;45.472;-122.822;2023-01-29T06:59:41;2.00;;;0.80;;
6374;SDS011;35400;45.472;-122.822;2023-01-29T07:02:08;0.77;;;0.77;;
6374;SDS011;35400;45.472;-122.822;2023-01-29T07:04:35;2.77;;;1.00;;
6374;SDS011;35400;45.472;-122.822;2023-01-29T07:07:02;1.37;;;0.70;;
6374;SDS011;35400;45.472;-122.822;2023-01-29T07:09:29;0.70;;;0.70;;
6374;SDS011;35400;45.472;-122.822;2023-01-29T07:11:56;0.80;;;0.80;;
6374;SDS011;35400;45.472;-122.822;2023-01-29T07:14:23;1.90;;;0.70;;
6374;SDS011;35400;45.472;-122.822;2023-01-29T07:16:50;0.67;;;0.67;;
6374;SDS011;35400;45.472;-122.822;2023-01-29T07:19:17;1.10;;;1.00;;
6374;SDS011;35400;45.472;-122.822;2023-01-29T07:21:43;1.20;;;0.70;;
6374;SDS011;35400;45.472;-122.822;2023-01-29T07:24:10;1.07;;;0.97;;
6374;SDS011;35400;45.472;-122.822;2023-01-29T07:26:37;0.90;;;0.80;;
6374;SDS011;35400;45.472;-122.822;2023-01-29T07:29:04;0.80;;;0.70;;
6374;SDS011;35400;45.472;-122.822;2023-01-29T07:31:31;0.80;;;0.80;;
6374;SDS011;35400;45.472;-122.822;2023-01-29T07:33:58;0.60;;;0.60;;
6374;SDS011;35400;45.472;-122.822;2023-01-29T07:36:25;1.77;;;0.70;;
6374;SDS011;35400;45.472;-122.822;2023-01-29T07:38:52;1.50;;;0.80;;
6374;SDS011;35400;45.472;-122.822;2023-01-29T07:41:19;0.83;;;0.60;;
6374;SDS011;35400;45.472;-122.822;2023-01-29T07:43:46;0.80;;;0.80;;
6374;SDS011;35400;45.472;-122.822;2023-01-29T07:46:13;0.70;;;0.70;;
6374;SDS011;35400;45.472;-122.822;2023-01-29T07:48:40;0.97;;;0.87;;
6374;SDS011;35400;45.472;-122.822;2023-01-29T07:51:07;1.30;;;0.73;;
6374;SDS011;35400;45.472;-122.822;2023-01-29T07:53:34;1.47;;;0.70;;
6374;SDS011;35400;45.472;-122.822;2023-01-29T07:56:01;0.80;;;0.80;;
6374;SDS011;35400;45.472;-122.822;2023-01-29T07:58:28;0.80;;;0.80;;
6374;SDS011;35400;45.472;-122.822;2023-01-29T08:00:55;1.80;;;0.90;;
6374;SDS011;35400;45.472;-122.822;2023-01-29T08:03:22;0.93;;;0.80;;
6374;SDS011;35400;45.472;-122.822;2023-01-29T08:05:49;1.13;;;1.03;;
6374;SDS011;35400;45.472;-122.822;2023-01-29T08:08:16;1.30;;;0.70;;
6374;SDS011;35400;45.472;-122.822;2023-01-29T08:10:43;0.80;;;0.60;;
6374;SDS011;35400;45.472;-122.822;2023-01-29T08:13:10;0.80;;;0.73;;
6374;SDS011;35400;45.472;-122.822;2023-01-29T08:15:37;0.70;;;0.70;;
6374;SDS011;35400;45.472;-122.822;2023-01-29T08:18:07;0.80;;;0.80;;
6374;SDS011;35400;45.472;-122.822;2023-01-29T08:20:34;1.10;;;0.80;;
6374;SDS011;35400;45.472;-122.822;2023-01-29T08:23:02;0.60;;;0.60;;
6374;SDS011;35400;45.472;-122.822;2023-01-29T08:25:31;1.00;;;0.80;;
6374;SDS011;35400;45.472;-122.822;2023-01-29T08:27:58;0.70;;;0.70;;
6374;SDS011;35400;45.472;-122.822;2023-01-29T08:30:29;0.70;;;0.70;;
6374;SDS011;35400;45.472;-122.822;2023-01-29T08:32:58;1.40;;;1.30;;
6374;SDS011;35400;45.472;-122.822;2023-01-29T08:35:25;0.67;;;0.53;;
6374;SDS011;35400;45.472;-122.822;2023-01-29T08:37:56;1.00;;;0.60;;
6374;SDS011;35400;45.472;-122.822;2023-01-29T08:40:25;1.20;;;0.90;;
6374;SDS011;35400;45.472;-122.822;2023-01-29T08:42:59;0.70;;;0.60;;
6374;SDS011;35400;45.472;-122.822;2023-01-29T08:45:28;0.60;;;0.50;;
6374;SDS011;35400;45.472;-122.822;2023-01-29T08:47:56;1.10;;;0.53;;
6374;SDS011;35400;45.472;-122.822;2023-01-29T08:50:23;1.70;;;0.70;;
6374;SDS011;35400;45.472;-122.822;2023-01-29T08:52:50;2.40;;;0.80;;
6374;SDS011;35400;45.472;-122.822;2023-01-29T08:55:22;0.50;;;0.50;;
6374;SDS011;35400;45.472;-122.822;2023-01-29T08:57:48;1.00;;;0.90;;
6374;SDS011;35400;45.472;-122.822;2023-01-29T09:00:15;1.37;;;0.87;;
6374;SDS011;35400;45.472;-122.822;2023-01-29T09:02:42;0.87;;;0.67;;
6374;SDS011;35400;45.472;-122.822;2023-01-29T09:05:09;1.60;;;0.80;;
6374;SDS011;35400;45.472;-122.822;2023-01-29T09:07:36;0.70;;;0.70;;
6374;SDS011;35400;45.472;-122.822;2023-01-29T09:10:03;0.77;;;0.70;;
6374;SDS011;35400;45.472;-122.822;2023-01-29T09:12:30;0.67;;;0.50;;
6374;SDS011;35400;45.472;-122.822;2023-01-29T09:14:57;2.10;;;0.90;;
6374;SDS011;35400;45.472;-122.822;2023-01-29T09:17:24;0.80;;;0.77;;
6374;SDS011;35400;45.472;-122.822;2023-01-29T09:19:51;0.63;;;0.63;;
6374;SDS011;35400;45.472;-122.822;2023-01-29T09:22:18;0.60;;;0.60;;
6374;SDS011;35400;45.472;-122.822;2023-01-29T09:24:45;0.60;;;0.60;;
6374;SDS011;35400;45.472;-122.822;2023-01-29T09:27:12;1.57;;;0.93;;
6374;SDS011;35400;45.472;-122.822;2023-01-29T09:29:39;2.90;;;0.70;;
6374;SDS011;35400;45.472;-122.822;2023-01-29T09:32:05;0.63;;;0.60;;
6374;SDS011;35400;45.472;-122.822;2023-01-29T09:34:33;0.73;;;0.70;;
6374;SDS011;35400;45.472;-122.822;2023-01-29T09:37:00;0.73;;;0.60;;
6374;SDS011;35400;45.472;-122.822;2023-01-29T09:39:26;0.77;;;0.70;;
6374;SDS011;35400;45.472;-122.822;2023-01-29T09:41:59;1.03;;;0.97;;
6374;SDS011;35400;45.472;-122.822;2023-01-29T09:47:22;1.13;;;0.83;;
6374;SDS011;35400;45.472;-122.822;2023-01-29T09:49:57;0.73;;;0.70;;
6374;SDS011;35400;45.472;-122.822;2023-01-29T09:55:13;0.70;;;0.70;;
6374;SDS011;35400;45.472;-122.822;2023-01-29T09:57:56;0.73;;;0.60;;
6374;SDS011;35400;45.472;-122.822;2023-01-29T10:00:50;0.50;;;0.50;;
6374;SDS011;35400;45.472;-122.822;2023-01-29T10:09:44;0.70;;;0.70;;
6374;SDS011;35400;45.472;-122.822;2023-01-29T10:16:06;2.33;;;0.60;;
6374;SDS011;35400;45.472;-122.822;2023-01-29T10:18:50;0.70;;;0.70;;
6374;SDS011;35400;45.472;-122.822;2023-01-29T10:24:36;1.03;;;0.67;;
6374;SDS011;35400;45.472;-122.822;2023-01-29T10:27:15;1.13;;;0.77;;
6374;SDS011;35400;45.472;-122.822;2023-01-29T10:29:44;0.70;;;0.70;;
6374;SDS011;35400;45.472;-122.822;2023-01-29T10:32:17;1.20;;;0.80;;
6374;SDS011;35400;45.472;-122.822;2023-01-29T10:37:23;1.47;;;1.10;;
6374;SDS011;35400;45.472;-122.822;2023-01-29T10:40:10;0.90;;;0.77;;
6374;SDS011;35400;45.472;-122.822;2023-01-29T10:43:12;1.37;;;0.90;;
6374;SDS011;35400;45.472;-122.822;2023-01-29T10:46:17;1.33;;;0.77;;
6374;SDS011;35400;45.472;-122.822;2023-01-29T10:54:57;0.77;;;0.77;;
6374;SDS011;35400;45.472;-122.822;2023-01-29T10:57:48;0.70;;;0.70;;
6374;SDS011;35400;45.472;-122.822;2023-01-29T11:00:26;0.50;;;0.50;;
6374;SDS011;35400;45.472;-122.822;2023-01-29T11:03:06;0.70;;;0.70;;
6374;SDS011;35400;45.472;-122.822;2023-01-29T11:05:43;0.97;;;0.63;;
6374;SDS011;35400;45.472;-122.822;2023-01-29T11:08:22;0.53;;;0.53;;
6374;SDS011;35400;45.472;-122.822;2023-01-29T11:14:03;0.50;;;0.50;;
6374;SDS011;35400;45.472;-122.822;2023-01-29T11:16:41;1.27;;;0.80;;
6374;SDS011;35400;45.472;-122.822;2023-01-29T11:19:11;1.13;;;1.00;;
6374;SDS011;35400;45.472;-122.822;2023-01-29T11:24:25;0.73;;;0.73;;
6374;SDS011;35400;45.472;-122.822;2023-01-29T11:26:56;1.17;;;0.93;;
6374;SDS011;35400;45.472;-122.822;2023-01-29T11:29:38;0.67;;;0.67;;
6374;SDS011;35400;45.472;-122.822;2023-01-29T11:32:14;0.90;;;0.60;;
6374;SDS011;35400;45.472;-122.822;2023-01-29T11:35:04;0.60;;;0.60;;
6374;SDS011;35400;45.472;-122.822;2023-01-29T11:37:41;2.10;;;0.67;;
6374;SDS011;35400;45.472;-122.822;2023-01-29T11:40:32;0.90;;;0.60;;
6374;SDS011;35400;45.472;-122.822;2023-01-29T11:43:11;0.60;;;0.60;;
6374;SDS011;35400;45.472;-122.822;2023-01-29T11:45:38;0.70;;;0.70;;
6374;SDS011;35400;45.472;-122.822;2023-01-29T11:48:10;0.57;;;0.57;;
6374;SDS011;35400;45.472;-122.822;2023-01-29T11:50:41;2.07;;;0.67;;
6374;SDS011;35400;45.472;-122.822;2023-01-29T11:53:28;1.00;;;0.63;;
6374;SDS011;35400;45.472;-122.822;2023-01-29T11:58:46;1.03;;;0.80;;
6374;SDS011;35400;45.472;-122.822;2023-01-29T12:01:15;0.70;;;0.70;;
6374;SDS011;35400;45.472;-122.822;2023-01-29T12:03:49;0.60;;;0.60;;
6374;SDS011;35400;45.472;-122.822;2023-01-29T12:06:20;2.00;;;0.70;;
6374;SDS011;35400;45.472;-122.822;2023-01-29T12:08:56;0.80;;;0.70;;
6374;SDS011;35400;45.472;-122.822;2023-01-29T12:11:30;0.70;;;0.70;;
6374;SDS011;35400;45.472;-122.822;2023-01-29T12:13:59;0.83;;;0.70;;
6374;SDS011;35400;45.472;-122.822;2023-01-29T12:19:24;0.70;;;0.70;;
6374;SDS011;35400;45.472;-122.822;2023-01-29T12:24:58;0.50;;;0.50;;
6374;SDS011;35400;45.472;-122.822;2023-01-29T12:27:32;0.67;;;0.60;;
6374;SDS011;35400;45.472;-122.822;2023-01-29T12:30:15;2.53;;;0.80;;
6374;SDS011;35400;45.472;-122.822;2023-01-29T12:32:48;0.57;;;0.40;;
6374;SDS011;35400;45.472;-122.822;2023-01-29T12:35:34;0.97;;;0.70;;
6374;SDS011;35400;45.472;-122.822;2023-01-29T12:38:28;0.77;;;0.70;;
6374;SDS011;35400;45.472;-122.822;2023-01-29T12:41:06;0.60;;;0.60;;
6374;SDS011;35400;45.472;-122.822;2023-01-29T12:43:49;0.67;;;0.67;;
6374;SDS011;35400;45.472;-122.822;2023-01-29T12:46:25;0.67;;;0.60;;
6374;SDS011;35400;45.472;-122.822;2023-01-29T12:48:54;0.70;;;0.70;;
6374;SDS011;35400;45.472;-122.822;2023-01-29T12:51:46;0.50;;;0.50;;
6374;SDS011;35400;45.472;-122.822;2023-01-29T12:54:21;0.50;;;0.50;;
6374;SDS011;35400;45.472;-122.822;2023-01-29T12:56:57;1.27;;;0.70;;
6374;SDS011;35400;45.472;-122.822;2023-01-29T12:59:29;0.73;;;0.57;;
6374;SDS011;35400;45.472;-122.822;2023-01-29T13:02:21;0.60;;;0.60;;
6374;SDS011;35400;45.472;-122.822;2023-01-29T13:07:57;0.40;;;0.40;;
6374;SDS011;35400;45.472;-122.822;2023-01-29T13:10:37;0.93;;;0.60;;
6374;SDS011;35400;45.472;-122.822;2023-01-29T13:13:13;0.57;;;0.57;;
6374;SDS011;35400;45.472;-122.822;2023-01-29T13:16:00;0.60;;;0.60;;
6374;SDS011;35400;45.472;-122.822;2023-01-29T13:18:35;0.60;;;0.60;;
6374;SDS011;35400;45.472;-122.822;2023-01-29T13:21:18;1.90;;;0.70;;
6374;SDS011;35400;45.472;-122.822;2023-01-29T13:24:02;0.63;;;0.60;;
6374;SDS011;35400;45.472;-122.822;2023-01-29T13:26:44;0.57;;;0.50;;
6374;SDS011;35400;45.472;-122.822;2023-01-29T13:29:22;0.60;;;0.60;;
6374;SDS011;35400;45.472;-122.822;2023-01-29T13:31:51;0.50;;;0.50;;
6374;SDS011;35400;45.472;-122.822;2023-01-29T13:36:52;1.07;;;0.50;;
6374;SDS011;35400;45.472;-122.822;2023-01-29T13:39:31;0.67;;;0.67;;
6374;SDS011;35400;45.472;-122.822;2023-01-29T13:42:02;0.50;;;0.50;;
6374;SDS011;35400;45.472;-122.822;2023-01-29T13:44:48;0.63;;;0.63;;
6374;SDS011;35400;45.472;-122.822;2023-01-29T13:47:35;0.30;;;0.30;;
6374;SDS011;35400;45.472;-122.822;2023-01-29T13:53:06;0.40;;;0.40;;
6374;SDS011;35400;45.472;-122.822;2023-01-29T13:55:44;0.83;;;0.60;;
6374;SDS011;35400;45.472;-122.822;2023-01-29T14:00:57;0.60;;;0.60;;
6374;SDS011;35400;45.472;-122.822;2023-01-29T14:11:36;0.50;;;0.50;;
6374;SDS011;35400;45.472;-122.822;2023-01-29T14:14:00;1.00;;;0.60;;
6374;SDS011;35400;45.472;-122.822;2023-01-29T14:16:47;0.60;;;0.50;;
6374;SDS011;35400;45.472;-122.822;2023-01-29T14:19:18;1.10;;;0.40;;
6374;SDS011;35400;45.472;-122.822;2023-01-29T14:21:47;0.50;;;0.50;;
6374;SDS011;35400;45.472;-122.822;2023-01-29T14:26:46;0.63;;;0.60;;
6374;SDS011;35400;45.472;-122.822;2023-01-29T14:29:27;1.03;;;0.60;;
6374;SDS011;35400;45.472;-122.822;2023-01-29T14:31:57;0.67;;;0.67;;
6374;SDS011;35400;45.472;-122.822;2023-01-29T14:37:38;0.83;;;0.70;;
6374;SDS011;35400;45.472;-122.822;2023-01-29T14:42:44;0.80;;;0.70;;
6374;SDS011;35400;45.472;-122.822;2023-01-29T14:45:25;0.50;;;0.50;;
6374;SDS011;35400;45.472;-122.822;2023-01-29T14:48:08;0.80;;;0.63;;
6374;SDS011;35400;45.472;-122.822;2023-01-29T14:51:09;0.50;;;0.50;;
6374;SDS011;35400;45.472;-122.822;2023-01-29T14:56:26;1.33;;;0.50;;
6374;SDS011;35400;45.472;-122.822;2023-01-29T15:02:16;0.60;;;0.57;;
6374;SDS011;35400;45.472;-122.822;2023-01-29T15:04:50;1.23;;;0.60;;
6374;SDS011;35400;45.472;-122.822;2023-01-29T15:07:28;0.70;;;0.70;;
6374;SDS011;35400;45.472;-122.822;2023-01-29T15:21:14;1.00;;;0.60;;
6374;SDS011;35400;45.472;-122.822;2023-01-29T15:23:43;0.63;;;0.63;;
6374;SDS011;35400;45.472;-122.822;2023-01-29T15:26:17;0.50;;;0.50;;
6374;SDS011;35400;45.472;-122.822;2023-01-29T15:28:55;1.90;;;0.67;;
6374;SDS011;35400;45.472;-122.822;2023-01-29T15:31:24;0.70;;;0.50;;
6374;SDS011;35400;45.472;-122.822;2023-01-29T15:33:53;0.40;;;0.40;;
6374;SDS011;35400;45.472;-122.822;2023-01-29T15:36:24;0.90;;;0.60;;
6374;SDS011;35400;45.472;-122.822;2023-01-29T15:41:44;0.60;;;0.60;;
6374;SDS011;35400;45.472;-122.822;2023-01-29T15:44:15;1.17;;;0.80;;
6374;SDS011;35400;45.472;-122.822;2023-01-29T15:46:44;0.60;;;0.60;;
6374;SDS011;35400;45.472;-122.822;2023-01-29T15:49:24;0.60;;;0.60;;
6374;SDS011;35400;45.472;-122.822;2023-01-29T15:52:08;0.63;;;0.60;;
6374;SDS011;35400;45.472;-122.822;2023-01-29T15:54:43;0.60;;;0.60;;
6374;SDS011;35400;45.472;-122.822;2023-01-29T15:57:17;0.50;;;0.50;;
6374;SDS011;35400;45.472;-122.822;2023-01-29T15:59:49;0.40;;;0.40;;
6374;SDS011;35400;45.472;-122.822;2023-01-29T16:02:31;0.57;;;0.50;;
6374;SDS011;35400;45.472;-122.822;2023-01-29T16:05:02;0.43;;;0.43;;
6374;SDS011;35400;45.472;-122.822;2023-01-29T16:07:50;1.00;;;0.50;;
6374;SDS011;35400;45.472;-122.822;2023-01-29T16:10:19;0.80;;;0.60;;
6374;SDS011;35400;45.472;-122.822;2023-01-29T16:12:58;0.40;;;0.40;;
6374;SDS011;35400;45.472;-122.822;2023-01-29T16:15:35;0.50;;;0.50;;
6374;SDS011;35400;45.472;-122.822;2023-01-29T16:18:20;0.73;;;0.60;;
6374;SDS011;35400;45.472;-122.822;2023-01-29T16:20:59;0.70;;;0.70;;
6374;SDS011;35400;45.472;-122.822;2023-01-29T16:23:35;0.63;;;0.63;;
6374;SDS011;35400;45.472;-122.822;2023-01-29T16:26:07;0.50;;;0.50;;
6374;SDS011;35400;45.472;-122.822;2023-01-29T16:28:42;0.53;;;0.53;;
6374;SDS011;35400;45.472;-122.822;2023-01-29T16:31:11;0.80;;;0.43;;
6374;SDS011;35400;45.472;-122.822;2023-01-29T16:33:40;0.50;;;0.50;;
6374;SDS011;35400;45.472;-122.822;2023-01-29T16:36:11;0.60;;;0.60;;
6374;SDS011;35400;45.472;-122.822;2023-01-29T16:38:40;0.40;;;0.40;;
6374;SDS011;35400;45.472;-122.822;2023-01-29T16:43:59;0.50;;;0.50;;
6374;SDS011;35400;45.472;-122.822;2023-01-29T16:46:46;2.57;;;0.60;;
6374;SDS011;35400;45.472;-122.822;2023-01-29T16:49:59;0.70;;;0.67;;
6374;SDS011;35400;45.472;-122.822;2023-01-29T16:52:30;0.50;;;0.50;;
6374;SDS011;35400;45.472;-122.822;2023-01-29T16:55:20;0.63;;;0.43;;
6374;SDS011;35400;45.472;-122.822;2023-01-29T16:57:49;0.50;;;0.50;;
6374;SDS011;35400;45.472;-122.822;2023-01-29T17:00:27;0.77;;;0.67;;
6374;SDS011;35400;45.472;-122.822;2023-01-29T17:02:59;0.60;;;0.60;;
6374;SDS011;35400;45.472;-122.822;2023-01-29T17:05:31;0.40;;;0.40;;
6374;SDS011;35400;45.472;-122.822;2023-01-29T17:08:00;0.60;;;0.60;;
6374;SDS011;35400;45.472;-122.822;2023-01-29T17:10:28;0.83;;;0.50;;
6374;SDS011;35400;45.472;-122.822;2023-01-29T17:12:58;0.43;;;0.43;;